Time;durP1;ratioP1;P1;durP2;ratioP2;P2;SDS_P1;SDS_P2;PMS_P1;PMS_P2;Temp;Humidity;BMP_temperature;BMP_pressure;BME280_temperature;BME280_humidity;BME280_pressure;Samples;Min_cycle;Max_cycle;Signal;HPM_P1;HPM_P2
2021/12/09 00:01:13;;;;;;;19.15;8.20;;;;;;;;;;5011210;28;44198;-86
2021/12/09 00:03:41;;;;;;;17.45;7.85;;;;;;;;;;5011470;28;45288;-85
2021/12/09 00:06:09;;;;;;;13.48;7.53;;;;;;;;;;5010987;28;45779;-85
2021/12/09 00:08:37;;;;;;;20.08;8.15;;;;;;;;;;5010773;28;44018;-85
2021/12/09 00:11:05;;;;;;;16.55;7.50;;;;;;;;;;5010649;28;43956;-85
2021/12/09 00:13:31;;;;;;;20.30;8.70;;;;;;;;;;5011297;28;44011;-85
2021/12/09 00:15:58;;;;;;;15.60;7.90;;;;;;;;;;5009932;28;42889;-86
2021/12/09 00:18:25;;;;;;;16.30;7.40;;;;;;;;;;5016083;28;45673;-85
2021/12/09 00:20:52;;;;;;;16.52;8.20;;;;;;;;;;5014069;28;45846;-85
2021/12/09 00:23:19;;;;;;;22.80;8.30;;;;;;;;;;5010766;28;42887;-85
2021/12/09 00:25:45;;;;;;;15.80;7.43;;;;;;;;;;5010905;28;46006;-85
2021/12/09 00:28:12;;;;;;;18.95;7.93;;;;;;;;;;5010854;28;46246;-85
2021/12/09 00:30:39;;;;;;;16.63;7.68;;;;;;;;;;5009961;28;45500;-84
2021/12/09 00:33:06;;;;;;;17.00;8.27;;;;;;;;;;5010947;28;43679;-84
2021/12/09 00:35:44;;;;;;;13.02;7.57;;;;;;;;;;5010659;28;44015;-84
2021/12/09 00:38:20;;;;;;;15.93;7.68;;;;;;;;;;5010072;28;44982;-84
2021/12/09 00:40:47;;;;;;;14.15;7.95;;;;;;;;;;5010253;28;43787;-84
2021/12/09 00:43:17;;;;;;;16.15;7.85;;;;;;;;;;5011458;28;42854;-84
2021/12/09 00:45:45;;;;;;;15.40;7.45;;;;;;;;;;5010215;28;44648;-84
2021/12/09 00:48:12;;;;;;;19.63;7.83;;;;;;;;;;5010694;28;45922;-84
2021/12/09 00:50:38;;;;;;;11.00;7.57;;;;;;;;;;5009738;28;44197;-84
2021/12/09 00:53:05;;;;;;;12.95;7.70;;;;;;;;;;5010641;28;45684;-84
2021/12/09 00:55:32;;;;;;;17.42;7.40;;;;;;;;;;5010983;28;46317;-82
2021/12/09 00:57:59;;;;;;;13.35;7.35;;;;;;;;;;5010052;28;43688;-85
2021/12/09 01:00:25;;;;;;;18.00;8.50;;;;;;;;;;5010569;28;43883;-85
2021/12/09 01:02:52;;;;;;;14.02;7.95;;;;;;;;;;5010268;28;45199;-85
2021/12/09 01:05:19;;;;;;;22.50;7.50;;;;;;;;;;5009537;28;45523;-84
2021/12/09 01:07:46;;;;;;;14.43;8.27;;;;;;;;;;5009731;28;43953;-83
2021/12/09 01:10:14;;;;;;;11.48;7.28;;;;;;;;;;5010531;28;44951;-84
2021/12/09 01:12:41;;;;;;;16.30;7.90;;;;;;;;;;5009033;28;45720;-85
2021/12/09 01:15:09;;;;;;;16.70;8.25;;;;;;;;;;5010427;28;46040;-84
2021/12/09 01:17:35;;;;;;;16.90;7.95;;;;;;;;;;5009943;28;42891;-84
2021/12/09 01:20:03;;;;;;;15.43;7.47;;;;;;;;;;5009340;28;44151;-84
2021/12/09 01:22:37;;;;;;;17.50;7.35;;;;;;;;;;5008655;28;42866;-84
2021/12/09 01:25:06;;;;;;;15.40;7.25;;;;;;;;;;5010424;28;45736;-84
2021/12/09 01:27:35;;;;;;;19.23;7.07;;;;;;;;;;5008961;28;44949;-85
2021/12/09 01:30:09;;;;;;;17.45;7.97;;;;;;;;;;5010364;28;43409;-85
2021/12/09 01:32:36;;;;;;;16.17;7.70;;;;;;;;;;5009177;28;44761;-85
2021/12/09 01:35:03;;;;;;;15.95;7.32;;;;;;;;;;5009353;28;45187;-85
2021/12/09 01:37:30;;;;;;;18.30;7.93;;;;;;;;;;5009665;28;44795;-85
2021/12/09 01:39:57;;;;;;;17.30;7.35;;;;;;;;;;5009200;28;46034;-85
2021/12/09 01:42:23;;;;;;;18.92;8.30;;;;;;;;;;5009181;28;42865;-85
2021/12/09 01:44:50;;;;;;;11.02;6.97;;;;;;;;;;5010070;28;44835;-84
2021/12/09 01:47:17;;;;;;;18.77;7.47;;;;;;;;;;5008429;28;44942;-84
2021/12/09 01:49:44;;;;;;;17.15;7.95;;;;;;;;;;5009990;28;42950;-84
2021/12/09 01:52:10;;;;;;;16.52;7.82;;;;;;;;;;5009194;28;45735;-84
2021/12/09 01:54:37;;;;;;;19.10;9.27;;;;;;;;;;5009206;28;46467;-84
2021/12/09 01:57:05;;;;;;;18.52;7.63;;;;;;;;;;5009142;28;44971;-85
2021/12/09 01:59:32;;;;;;;20.23;8.65;;;;;;;;;;5010276;28;45767;-85
2021/12/09 02:01:59;;;;;;;19.88;7.60;;;;;;;;;;5008508;28;44040;-85
2021/12/09 02:04:26;;;;;;;15.07;7.30;;;;;;;;;;5009489;28;44705;-84
2021/12/09 02:06:53;;;;;;;16.92;7.10;;;;;;;;;;5008792;28;45337;-84
2021/12/09 02:09:20;;;;;;;12.25;7.75;;;;;;;;;;5008695;28;44947;-85
2021/12/09 02:11:47;;;;;;;16.02;7.50;;;;;;;;;;5008686;28;43615;-84
2021/12/09 02:14:13;;;;;;;19.60;8.40;;;;;;;;;;5009564;28;43980;-84
2021/12/09 02:16:40;;;;;;;18.45;6.60;;;;;;;;;;5008160;28;44589;-84
2021/12/09 02:19:10;;;;;;;17.25;7.05;;;;;;;;;;5009423;28;44856;-84
2021/12/09 02:21:37;;;;;;;16.27;7.32;;;;;;;;;;5009303;28;42988;-85
2021/12/09 02:24:05;;;;;;;16.20;7.72;;;;;;;;;;5008510;28;44745;-84
2021/12/09 02:26:32;;;;;;;;;;;;;;;;;;5010138;28;46352;-84
2021/12/09 02:28:59;;;;;;;14.00;6.55;;;;;;;;;;5008664;28;43001;-84
2021/12/09 02:31:26;;;;;;;12.18;7.53;;;;;;;;;;5008298;28;45722;-84
2021/12/09 02:33:54;;;;;;;;;;;;;;;;;;5011896;28;20057;-84
2021/12/09 02:36:21;;;;;;;23.50;7.78;;;;;;;;;;5007764;28;45010;-84
2021/12/09 02:38:49;;;;;;;12.60;8.07;;;;;;;;;;5009156;28;44876;-84
2021/12/09 02:41:19;;;;;;;18.42;7.63;;;;;;;;;;5008461;28;43745;-84
2021/12/09 02:43:46;;;;;;;18.90;7.13;;;;;;;;;;5009028;28;44977;-83
2021/12/09 02:46:15;;;;;;;18.88;7.53;;;;;;;;;;5008800;28;44904;-83
2021/12/09 02:48:42;;;;;;;;;;;;;;;;;;5010411;28;42899;-83
2021/12/09 02:51:09;;;;;;;13.18;6.38;;;;;;;;;;5007780;28;44323;-84
2021/12/09 02:53:36;;;;;;;18.00;7.22;;;;;;;;;;5009404;28;45981;-84
2021/12/09 02:56:03;;;;;;;17.80;6.93;;;;;;;;;;5008813;28;43533;-84
2021/12/09 02:58:30;;;;;;;16.13;7.22;;;;;;;;;;5008859;28;43711;-84
2021/12/09 03:01:05;;;;;;;18.27;6.72;;;;;;;;;;5008200;28;46076;-84
2021/12/09 03:03:32;;;;;;;15.98;7.50;;;;;;;;;;5009240;28;44736;-84
2021/12/09 03:05:59;;;;;;;14.57;6.88;;;;;;;;;;5007921;28;44675;-84
2021/12/09 03:08:36;;;;;;;20.92;8.07;;;;;;;;;;5008754;28;43988;-85
2021/12/09 03:11:05;;;;;;;16.13;7.00;;;;;;;;;;5008442;28;45678;-85
2021/12/09 03:13:32;;;;;;;17.10;6.93;;;;;;;;;;5008500;28;46370;-84
2021/12/09 03:15:59;;;;;;;24.10;7.18;;;;;;;;;;5008058;28;45230;-84
2021/12/09 03:18:26;;;;;;;19.83;7.10;;;;;;;;;;5008130;28;45820;-84
2021/12/09 03:20:53;;;;;;;16.58;7.25;;;;;;;;;;5007905;28;45182;-84
2021/12/09 03:23:20;;;;;;;16.13;7.28;;;;;;;;;;5008414;28;44842;-84
2021/12/09 03:25:47;;;;;;;18.60;7.40;;;;;;;;;;5007513;28;44669;-83
2021/12/09 03:28:13;;;;;;;16.40;7.00;;;;;;;;;;5008807;28;46024;-84
2021/12/09 03:30:40;;;;;;;28.17;8.00;;;;;;;;;;5008056;28;45762;-83
2021/12/09 03:33:07;;;;;;;13.93;6.82;;;;;;;;;;5007865;28;43788;-83
2021/12/09 03:35:34;;;;;;;21.85;7.45;;;;;;;;;;5008275;28;44856;-84
2021/12/09 03:38:00;;;;;;;19.23;7.03;;;;;;;;;;5008356;28;46494;-84
2021/12/09 03:40:27;;;;;;;20.48;7.55;;;;;;;;;;5007419;28;46047;-84
2021/12/09 03:42:53;;;;;;;13.00;6.85;;;;;;;;;;5007713;28;44873;-84
2021/12/09 03:45:20;;;;;;;18.70;7.03;;;;;;;;;;5008212;28;45962;-83
2021/12/09 03:47:47;;;;;;;19.15;6.80;;;;;;;;;;5010790;28;45980;-83
2021/12/09 03:50:15;;;;;;;18.63;7.30;;;;;;;;;;5011459;28;45653;-84
2021/12/09 03:52:42;;;;;;;21.02;7.68;;;;;;;;;;5011010;28;45905;-84
2021/12/09 03:55:10;;;;;;;16.80;6.78;;;;;;;;;;5011049;28;43957;-83
2021/12/09 03:57:36;;;;;;;13.32;6.38;;;;;;;;;;5012024;28;43657;-84
2021/12/09 04:00:05;;;;;;;24.65;7.03;;;;;;;;;;5011353;28;42945;-84
2021/12/09 04:02:31;;;;;;;17.00;6.93;;;;;;;;;;5010219;28;44885;-84
2021/12/09 04:04:58;;;;;;;19.10;6.30;;;;;;;;;;5011653;28;43646;-85
2021/12/09 04:07:25;;;;;;;16.90;6.43;;;;;;;;;;5010083;28;43753;-83
2021/12/09 04:09:52;;;;;;;18.75;6.28;;;;;;;;;;5012206;28;42909;-84
2021/12/09 04:12:19;;;;;;;21.58;7.05;;;;;;;;;;5011278;28;44440;-85
2021/12/09 04:14:46;;;;;;;18.17;6.47;;;;;;;;;;5011445;28;44935;-84
2021/12/09 04:17:13;;;;;;;20.33;6.38;;;;;;;;;;5010609;28;45689;-84
2021/12/09 04:19:46;;;;;;;18.15;6.50;;;;;;;;;;5011626;28;43969;-85
2021/12/09 04:22:14;;;;;;;17.17;6.15;;;;;;;;;;5009765;28;44744;-85
2021/12/09 04:24:41;;;;;;;15.70;5.95;;;;;;;;;;5011561;28;42504;-84
2021/12/09 04:27:08;;;;;;;14.57;5.75;;;;;;;;;;5010714;28;45038;-84
2021/12/09 04:29:35;;;;;;;18.27;6.15;;;;;;;;;;5010283;28;44930;-81
2021/12/09 04:32:02;;;;;;;10.45;5.68;;;;;;;;;;5010405;28;45938;-85
2021/12/09 04:34:30;;;;;;;12.05;5.80;;;;;;;;;;5011013;28;45261;-85
2021/12/09 04:36:57;;;;;;;17.65;5.75;;;;;;;;;;5010377;28;45687;-86
2021/12/09 04:39:24;;;;;;;14.32;5.75;;;;;;;;;;5011005;28;45492;-85
2021/12/09 04:41:51;;;;;;;18.55;5.88;;;;;;;;;;5010041;28;42768;-85
2021/12/09 04:44:18;;;;;;;17.88;5.55;;;;;;;;;;5010245;28;45673;-85
2021/12/09 04:46:44;;;;;;;16.10;5.15;;;;;;;;;;5010051;28;43929;-85
2021/12/09 04:49:11;;;;;;;14.80;5.15;;;;;;;;;;5011178;28;42920;-84
2021/12/09 04:51:38;;;;;;;21.35;5.97;;;;;;;;;;5009410;28;46020;-85
2021/12/09 04:54:06;;;;;;;14.77;5.78;;;;;;;;;;5011035;28;46042;-85
2021/12/09 04:56:33;;;;;;;13.03;5.50;;;;;;;;;;5010031;28;45688;-84
2021/12/09 04:59:00;;;;;;;19.48;5.10;;;;;;;;;;5009123;28;46066;-85
2021/12/09 05:01:26;;;;;;;13.63;5.18;;;;;;;;;;5006767;28;42942;-84
2021/12/09 05:03:53;;;;;;;21.17;5.80;;;;;;;;;;5008428;28;45580;-84
2021/12/09 05:06:20;;;;;;;13.77;4.55;;;;;;;;;;5008283;28;46203;-85
2021/12/09 05:08:48;;;;;;;16.33;5.30;;;;;;;;;;5008778;28;42666;-83
2021/12/09 05:12:02;;;;;;;17.75;5.32;;;;;;;;;;5005779;28;45221;-83
2021/12/09 05:14:03;;;;;;;;;;;;;;;;;;5000405;28;44925;-85
2021/12/09 05:16:30;;;;;;;10.88;4.97;;;;;;;;;;5008649;28;45072;-84
2021/12/09 05:18:58;;;;;;;13.82;5.20;;;;;;;;;;5008750;28;46049;-84
2021/12/09 05:21:28;;;;;;;15.52;5.13;;;;;;;;;;5009140;28;43899;-85
2021/12/09 05:23:56;;;;;;;13.10;4.93;;;;;;;;;;5009066;28;44802;-83
2021/12/09 05:26:27;;;;;;;13.93;4.75;;;;;;;;;;5006870;28;44428;-84
2021/12/09 05:28:56;;;;;;;19.30;5.60;;;;;;;;;;5008028;28;44222;-84
2021/12/09 05:34:10;;;;;;;12.60;4.70;;;;;;;;;;5009243;28;43951;-83
2021/12/09 05:36:36;;;;;;;11.75;4.82;;;;;;;;;;5009829;28;42832;-85
2021/12/09 05:39:04;;;;;;;14.07;5.13;;;;;;;;;;5010004;28;45772;-85
2021/12/09 05:41:32;;;;;;;14.85;5.03;;;;;;;;;;5009336;28;44984;-85
2021/12/09 05:44:00;;;;;;;12.18;4.63;;;;;;;;;;5009764;28;44678;-85
2021/12/09 05:46:27;;;;;;;17.87;5.20;;;;;;;;;;5008751;28;46217;-84
2021/12/09 05:48:55;;;;;;;13.52;4.90;;;;;;;;;;5009736;28;43829;-84
2021/12/09 05:51:22;;;;;;;20.80;4.67;;;;;;;;;;5009347;28;44730;-84
2021/12/09 05:53:49;;;;;;;10.77;4.72;;;;;;;;;;5009151;28;46028;-84
2021/12/09 05:56:16;;;;;;;14.15;4.82;;;;;;;;;;5009330;28;41666;-84
2021/12/09 05:58:43;;;;;;;17.40;4.93;;;;;;;;;;5010370;28;43539;-84
2021/12/09 06:01:10;;;;;;;19.63;5.38;;;;;;;;;;5007929;28;43796;-85
2021/12/09 06:03:37;;;;;;;21.63;6.05;;;;;;;;;;5009713;28;45726;-84
2021/12/09 06:06:05;;;;;;;;;;;;;;;;;;5010397;28;44953;-84
2021/12/09 06:08:33;;;;;;;13.43;4.70;;;;;;;;;;5008770;28;44018;-84
2021/12/09 06:11:00;;;;;;;15.73;5.15;;;;;;;;;;5008815;28;45752;-84
2021/12/09 06:13:30;;;;;;;20.08;5.20;;;;;;;;;;5009506;28;45108;-84
2021/12/09 06:15:57;;;;;;;13.82;4.93;;;;;;;;;;5008228;28;44936;-85
2021/12/09 06:18:23;;;;;;;19.80;6.15;;;;;;;;;;5009573;28;44281;-84
2021/12/09 06:20:50;;;;;;;8.27;4.70;;;;;;;;;;5008992;28;43659;-85
2021/12/09 06:23:17;;;;;;;13.43;4.40;;;;;;;;;;5008707;28;44626;-84
2021/12/09 06:25:44;;;;;;;15.18;5.13;;;;;;;;;;5009072;28;43601;-85
2021/12/09 06:28:11;;;;;;;13.63;4.85;;;;;;;;;;5008178;28;42940;-85
2021/12/09 06:30:37;;;;;;;16.00;5.00;;;;;;;;;;5008622;28;43687;-84
2021/12/09 06:33:05;;;;;;;13.75;4.80;;;;;;;;;;5009431;28;46131;-84
2021/12/09 06:35:32;;;;;;;11.73;4.93;;;;;;;;;;5008432;28;44856;-84
2021/12/09 06:38:00;;;;;;;14.43;5.05;;;;;;;;;;5009330;28;43199;-85
2021/12/09 06:40:27;;;;;;;16.73;5.13;;;;;;;;;;5009243;28;44891;-84
2021/12/09 06:42:54;;;;;;;15.55;5.13;;;;;;;;;;5008504;28;44699;-84
2021/12/09 06:45:22;;;;;;;18.38;5.45;;;;;;;;;;5008788;28;44694;-84
2021/12/09 06:47:49;;;;;;;13.68;5.07;;;;;;;;;;5008772;28;43857;-84
2021/12/09 06:50:17;;;;;;;17.20;4.97;;;;;;;;;;5008509;28;43477;-84
2021/12/09 06:52:45;;;;;;;17.05;5.18;;;;;;;;;;5008428;28;44424;-83
2021/12/09 06:55:12;;;;;;;13.60;5.50;;;;;;;;;;5009673;28;45385;-84
2021/12/09 06:57:42;;;;;;;11.13;5.97;;;;;;;;;;5008841;28;44754;-84
2021/12/09 07:00:11;;;;;;;18.15;6.35;;;;;;;;;;5008642;28;45048;-84
2021/12/09 07:02:38;;;;;;;18.10;6.05;;;;;;;;;;5008763;28;42914;-84
2021/12/09 07:05:05;;;;;;;16.20;5.30;;;;;;;;;;5008720;28;45727;-83
2021/12/09 07:07:32;;;;;;;15.80;5.57;;;;;;;;;;5008365;28;43730;-84
2021/12/09 07:09:59;;;;;;;17.70;5.75;;;;;;;;;;5008925;28;44644;-84
2021/12/09 07:12:25;;;;;;;12.20;5.10;;;;;;;;;;5007262;28;45463;-84
2021/12/09 07:14:52;;;;;;;22.58;6.38;;;;;;;;;;5008591;28;43865;-84
2021/12/09 07:17:20;;;;;;;13.90;5.63;;;;;;;;;;5007448;28;44747;-82
2021/12/09 07:19:47;;;;;;;18.80;6.22;;;;;;;;;;5008744;28;46094;-84
2021/12/09 07:22:13;;;;;;;15.32;6.30;;;;;;;;;;5010672;28;43649;-84
2021/12/09 07:24:40;;;;;;;20.58;6.30;;;;;;;;;;5011392;28;44583;-84
2021/12/09 07:27:07;;;;;;;15.00;5.65;;;;;;;;;;5011553;28;44939;-84
2021/12/09 07:29:33;;;;;;;14.65;5.22;;;;;;;;;;5011817;28;44622;-84
2021/12/09 07:32:00;;;;;;;19.17;6.18;;;;;;;;;;5009807;28;45143;-84
2021/12/09 07:34:27;;;;;;;18.98;6.15;;;;;;;;;;5012553;28;42432;-84
2021/12/09 07:36:54;;;;;;;22.55;6.47;;;;;;;;;;5010984;28;44695;-84
2021/12/09 07:39:20;;;;;;;18.08;6.53;;;;;;;;;;5010754;28;45980;-84
2021/12/09 07:41:47;;;;;;;17.88;5.25;;;;;;;;;;5011253;28;44930;-83
2021/12/09 07:44:17;;;;;;;20.88;6.95;;;;;;;;;;5011869;28;45794;-83
2021/12/09 07:46:45;;;;;;;14.85;6.05;;;;;;;;;;5010297;28;46074;-83
2021/12/09 07:49:12;;;;;;;16.77;6.05;;;;;;;;;;5012199;28;35327;-83
2021/12/09 07:51:43;;;;;;;16.00;6.38;;;;;;;;;;5010952;28;45297;-82
2021/12/09 07:54:10;;;;;;;17.52;6.10;;;;;;;;;;5010917;28;43906;-83
2021/12/09 07:56:37;;;;;;;22.10;6.07;;;;;;;;;;5011100;28;44793;-84
2021/12/09 07:59:03;;;;;;;17.25;5.65;;;;;;;;;;5011604;28;44565;-84
2021/12/09 08:01:30;;;;;;;12.73;5.63;;;;;;;;;;5009939;28;43918;-84
2021/12/09 08:03:58;;;;;;;18.60;6.18;;;;;;;;;;5011664;28;44918;-83
2021/12/09 08:06:25;;;;;;;18.85;5.82;;;;;;;;;;5008740;28;44126;-84
2021/12/09 08:08:51;;;;;;;17.77;6.25;;;;;;;;;;5014572;28;43954;-84
2021/12/09 08:11:18;;;;;;;20.98;5.95;;;;;;;;;;5009644;28;44949;-84
2021/12/09 08:13:45;;;;;;;20.10;5.82;;;;;;;;;;5024706;28;43933;-83
2021/12/09 08:16:12;;;;;;;12.80;5.55;;;;;;;;;;5015485;28;44739;-83
2021/12/09 08:18:54;;;;;;;15.80;5.90;;;;;;;;;;5010702;28;46194;-84
2021/12/09 08:21:22;;;;;;;16.08;5.90;;;;;;;;;;5008299;28;44897;-86
2021/12/09 08:23:48;;;;;;;24.90;5.88;;;;;;;;;;5008097;28;44763;-85
2021/12/09 08:26:15;;;;;;;14.93;5.63;;;;;;;;;;5009756;28;42980;-83
2021/12/09 08:28:42;;;;;;;13.82;5.45;;;;;;;;;;5027701;28;43479;-82
2021/12/09 08:31:08;;;;;;;14.95;5.75;;;;;;;;;;5009596;28;44203;-82
2021/12/09 08:33:35;;;;;;;18.95;5.70;;;;;;;;;;5008319;28;43219;-82
2021/12/09 08:36:03;;;;;;;17.30;5.72;;;;;;;;;;5008521;28;45776;-83
2021/12/09 08:38:29;;;;;;;14.38;5.50;;;;;;;;;;5009996;28;44001;-80
2021/12/09 08:40:56;;;;;;;16.02;5.05;;;;;;;;;;5008791;28;42940;-83
2021/12/09 08:43:23;;;;;;;21.55;5.78;;;;;;;;;;5009885;28;43208;-82
2021/12/09 08:45:51;;;;;;;15.90;5.28;;;;;;;;;;5010701;28;44295;-80
2021/12/09 08:48:17;;;;;;;19.70;5.78;;;;;;;;;;5020767;28;43762;-81
2021/12/09 08:50:44;;;;;;;12.55;5.25;;;;;;;;;;5028031;28;45701;-81
2021/12/09 08:53:13;;;;;;;16.92;5.22;;;;;;;;;;5029243;28;44064;-81
2021/12/09 08:55:41;;;;;;;20.55;5.90;;;;;;;;;;5030191;28;46244;-80
2021/12/09 08:58:08;;;;;;;13.00;5.77;;;;;;;;;;5029768;28;44926;-83
2021/12/09 09:00:36;;;;;;;15.35;6.30;;;;;;;;;;5029757;28;42804;-79
2021/12/09 09:03:03;;;;;;;16.10;5.90;;;;;;;;;;5029174;28;45708;-81
2021/12/09 09:05:32;;;;;;;14.45;5.38;;;;;;;;;;5026819;28;45980;-82
2021/12/09 09:07:59;;;;;;;18.52;6.65;;;;;;;;;;5019588;28;42749;-83
2021/12/09 09:10:27;;;;;;;19.88;6.35;;;;;;;;;;5020267;28;43323;-82
2021/12/09 09:12:54;;;;;;;21.73;7.97;;;;;;;;;;5029624;28;46323;-84
2021/12/09 09:15:22;;;;;;;14.77;7.82;;;;;;;;;;5022108;28;43445;-82
2021/12/09 09:17:49;;;;;;;24.58;6.50;;;;;;;;;;5024935;28;44946;-82
2021/12/09 09:20:17;;;;;;;17.75;6.78;;;;;;;;;;5010152;28;42945;-82
2021/12/09 09:22:44;;;;;;;22.08;6.60;;;;;;;;;;5009310;28;44677;-82
2021/12/09 09:25:14;;;;;;;13.60;5.15;;;;;;;;;;5009410;28;45009;-82
2021/12/09 09:27:41;;;;;;;19.73;6.38;;;;;;;;;;5009519;28;44910;-82
2021/12/09 09:30:13;;;;;;;16.30;6.30;;;;;;;;;;5010115;28;46011;-82
2021/12/09 09:32:40;;;;;;;14.57;6.95;;;;;;;;;;5008977;28;45946;-83
2021/12/09 09:35:08;;;;;;;17.38;6.45;;;;;;;;;;5010039;28;43959;-80
2021/12/09 09:37:35;;;;;;;14.75;6.57;;;;;;;;;;5009832;28;45752;-81
2021/12/09 09:40:09;;;;;;;13.05;6.90;;;;;;;;;;5008872;28;45088;-81
2021/12/09 09:45:10;;;;;;;17.80;7.72;;;;;;;;;;5008215;28;46070;-82
2021/12/09 09:47:38;;;;;;;17.35;7.75;;;;;;;;;;5008958;28;45081;-81
2021/12/09 09:50:06;;;;;;;15.57;8.23;;;;;;;;;;5009616;28;44788;-80
2021/12/09 09:52:33;;;;;;;15.18;7.47;;;;;;;;;;5008253;28;44637;-80
2021/12/09 09:55:02;;;;;;;21.13;7.28;;;;;;;;;;5009575;28;43586;-83
2021/12/09 09:57:28;;;;;;;;;;;;;;;;;;5011140;28;43639;-81
2021/12/09 09:59:55;;;;;;;13.57;6.45;;;;;;;;;;5009197;28;42991;-80
2021/12/09 10:02:21;;;;;;;18.05;7.25;;;;;;;;;;5010908;28;43683;-81
2021/12/09 10:04:57;;;;;;;15.40;8.18;;;;;;;;;;5008957;28;43934;-80
2021/12/09 10:07:24;;;;;;;16.50;7.65;;;;;;;;;;5007284;28;44030;-81
2021/12/09 10:09:52;;;;;;;15.63;7.65;;;;;;;;;;5008801;28;45835;-81
2021/12/09 10:12:19;;;;;;;16.67;7.45;;;;;;;;;;5005177;28;44978;-81
2021/12/09 10:14:47;;;;;;;17.55;8.10;;;;;;;;;;5011217;28;42868;-81
2021/12/09 10:17:14;;;;;;;;;;;;;;;;;;5009028;28;45673;-79
2021/12/09 10:19:50;;;;;;;15.98;7.07;;;;;;;;;;5026004;28;45425;-84
2021/12/09 10:22:21;;;;;;;16.65;7.70;;;;;;;;;;5025982;28;43828;-84
2021/12/09 10:24:49;;;;;;;19.52;8.27;;;;;;;;;;5027560;28;44995;-83
2021/12/09 10:27:31;;;;;;;18.75;8.30;;;;;;;;;;5026304;28;43940;-84
2021/12/09 10:30:12;;;;;;;17.50;7.70;;;;;;;;;;5020031;28;46050;-83
2021/12/09 10:32:40;;;;;;;18.77;8.45;;;;;;;;;;5026951;28;44933;-83
2021/12/09 10:35:17;;;;;;;19.80;8.10;;;;;;;;;;5027098;28;44047;-84
2021/12/09 10:37:46;;;;;;;24.98;8.40;;;;;;;;;;5027341;28;45652;-83
2021/12/09 10:40:13;;;;;;;;;;;;;;;;;;5029092;28;43525;-84
2021/12/09 10:42:43;;;;;;;25.05;9.43;;;;;;;;;;5018202;28;43576;-84
2021/12/09 10:45:42;;;;;;;22.25;9.60;;;;;;;;;;5007327;28;41129;-83
2021/12/09 10:53:35;;;;;;;14.55;8.40;;;;;;;;;;5007004;28;46513;-85
2021/12/09 10:56:09;;;;;;;23.38;10.10;;;;;;;;;;5005119;28;44701;-85
2021/12/09 10:58:36;;;;;;;17.48;8.68;;;;;;;;;;5010314;28;45955;-86
2021/12/09 11:01:05;;;;;;;23.38;10.48;;;;;;;;;;5009198;28;43907;-86
2021/12/09 11:03:40;;;;;;;22.23;9.02;;;;;;;;;;5009421;28;42906;-86
2021/12/09 11:06:08;;;;;;;20.15;9.48;;;;;;;;;;5010224;28;45451;-85
2021/12/09 11:08:41;;;;;;;20.17;10.20;;;;;;;;;;5010540;28;43921;-85
2021/12/09 11:11:16;;;;;;;27.98;11.02;;;;;;;;;;5008056;28;43641;-86
2021/12/09 11:13:45;;;;;;;27.95;11.65;;;;;;;;;;5010699;28;45178;-85
2021/12/09 11:16:22;;;;;;;22.75;10.25;;;;;;;;;;5009485;28;44898;-86
2021/12/09 11:18:50;;;;;;;21.98;10.25;;;;;;;;;;5009739;28;45064;-85
2021/12/09 11:21:22;;;;;;;19.30;9.80;;;;;;;;;;5008722;28;44898;-86
2021/12/09 11:24:04;;;;;;;23.27;10.60;;;;;;;;;;5009142;28;44823;-85
2021/12/09 11:29:10;;;;;;;22.38;11.55;;;;;;;;;;5010666;28;43924;-85
2021/12/09 11:31:38;;;;;;;20.77;9.65;;;;;;;;;;5007763;28;45917;-86
2021/12/09 11:34:12;;;;;;;18.60;9.82;;;;;;;;;;5009992;28;45696;-86
2021/12/09 11:36:39;;;;;;;22.20;9.75;;;;;;;;;;5009065;28;43787;-88
2021/12/09 11:39:09;;;;;;;20.92;10.52;;;;;;;;;;5009307;28;44642;-86
2021/12/09 11:41:38;;;;;;;22.05;9.93;;;;;;;;;;5008133;28;45126;-86
2021/12/09 11:44:08;;;;;;;19.27;10.40;;;;;;;;;;5009223;28;43049;-86
2021/12/09 11:46:40;;;;;;;20.90;9.55;;;;;;;;;;5010397;28;44672;-85
2021/12/09 11:49:07;;;;;;;16.38;9.98;;;;;;;;;;5010398;28;46072;-85
2021/12/09 11:51:34;;;;;;;23.57;10.53;;;;;;;;;;5009453;28;45094;-85
2021/12/09 11:54:03;;;;;;;18.02;10.02;;;;;;;;;;5008656;28;46148;-85
2021/12/09 11:56:56;;;;;;;22.50;10.23;;;;;;;;;;5018988;28;44871;-85
2021/12/09 12:06:36;;;;;;;25.30;10.55;;;;;;;;;;5028885;28;45729;-86
2021/12/09 12:13:36;;;;;;;20.83;10.70;;;;;;;;;;5031780;28;20049;-88
2021/12/09 12:16:23;;;;;;;19.25;10.35;;;;;;;;;;5030068;28;45984;-89
2021/12/09 12:19:02;;;;;;;18.17;10.15;;;;;;;;;;5017204;28;42917;-88
2021/12/09 12:37:54;;;;;;;22.83;11.23;;;;;;;;;;4989326;28;43727;-80
2021/12/09 12:40:23;;;;;;;18.08;11.48;;;;;;;;;;4990585;28;43866;-90
2021/12/09 12:42:56;;;;;;;17.50;11.13;;;;;;;;;;4999508;28;46027;-88
2021/12/09 12:45:46;;;;;;;18.02;11.32;;;;;;;;;;5010184;28;46195;-88
2021/12/09 12:54:04;;;;;;;19.90;11.50;;;;;;;;;;5010346;28;46190;-88
2021/12/09 12:56:33;;;;;;;19.75;12.32;;;;;;;;;;5008563;28;44131;-88
2021/12/09 12:59:07;;;;;;;18.92;12.57;;;;;;;;;;5010134;28;43692;-90
2021/12/09 13:01:35;;;;;;;19.45;12.95;;;;;;;;;;5010691;28;20635;-90
2021/12/09 13:04:24;;;;;;;23.50;12.38;;;;;;;;;;5009665;28;44728;-89
2021/12/09 13:06:57;;;;;;;;;;;;;;;;;;5010639;28;43987;-88
2021/12/09 13:09:40;;;;;;;19.73;12.93;;;;;;;;;;5009290;28;43111;-90
2021/12/09 13:12:10;;;;;;;24.63;13.13;;;;;;;;;;5009359;28;43905;-91
2021/12/09 13:14:58;;;;;;;23.83;13.35;;;;;;;;;;5009974;28;43727;-90
2021/12/09 13:17:39;;;;;;;21.17;13.02;;;;;;;;;;5008668;28;43891;-91
2021/12/09 13:20:15;;;;;;;22.77;12.93;;;;;;;;;;5009904;28;43665;-87
2021/12/09 13:22:42;;;;;;;23.92;13.27;;;;;;;;;;5009463;28;44864;-84
2021/12/09 13:25:19;;;;;;;25.42;13.20;;;;;;;;;;5009456;28;42912;-93
2021/12/09 13:36:08;;;;;;;22.13;12.80;;;;;;;;;;4970490;28;46261;-91
2021/12/09 13:47:07;;;;;;;18.08;13.32;;;;;;;;;;5008608;28;43824;-86
2021/12/09 13:49:39;;;;;;;23.85;14.55;;;;;;;;;;5009752;28;43681;-83
2021/12/09 13:54:56;;;;;;;22.20;15.13;;;;;;;;;;5009387;28;44755;-81
2021/12/09 13:57:49;;;;;;;22.27;15.90;;;;;;;;;;5008250;28;45385;-83
2021/12/09 14:00:19;;;;;;;27.35;17.02;;;;;;;;;;5002978;28;44011;-93
2021/12/09 14:02:49;;;;;;;27.25;16.27;;;;;;;;;;5006758;28;46194;-91
2021/12/09 14:05:16;;;;;;;32.75;19.70;;;;;;;;;;5008991;28;44702;-92
2021/12/09 14:07:56;;;;;;;30.65;18.83;;;;;;;;;;5007564;28;44851;-91
2021/12/09 14:10:27;;;;;;;41.90;20.13;;;;;;;;;;5008213;28;43743;-92
2021/12/09 14:13:00;;;;;;;37.05;20.73;;;;;;;;;;5007306;28;43388;-90
2021/12/09 14:15:38;;;;;;;33.47;18.80;;;;;;;;;;5007882;28;45859;-91
2021/12/09 14:18:11;;;;;;;36.67;20.80;;;;;;;;;;5008392;28;44903;-83
2021/12/09 14:20:38;;;;;;;35.60;20.92;;;;;;;;;;5006830;28;43980;-85
2021/12/09 14:23:05;;;;;;;30.83;19.92;;;;;;;;;;5005650;28;45997;-94
2021/12/09 14:25:34;;;;;;;35.47;20.35;;;;;;;;;;5008278;28;42778;-92
2021/12/09 14:28:03;;;;;;;34.33;21.00;;;;;;;;;;5007393;28;43121;-92
2021/12/09 14:30:29;;;;;;;35.42;20.48;;;;;;;;;;5007324;28;43780;-92
2021/12/09 14:32:57;;;;;;;37.30;20.77;;;;;;;;;;5007170;28;45949;-92
2021/12/09 14:35:31;;;;;;;34.22;21.48;;;;;;;;;;5006916;28;44684;-92
2021/12/09 14:37:58;;;;;;;28.40;19.88;;;;;;;;;;5008265;28;44137;-94
2021/12/09 14:40:31;;;;;;;32.58;19.95;;;;;;;;;;5008832;28;44626;-93
2021/12/09 14:42:59;;;;;;;32.03;20.10;;;;;;;;;;5008120;28;44768;-94
2021/12/09 14:45:27;;;;;;;33.45;20.80;;;;;;;;;;5011348;28;44922;-94
2021/12/09 14:47:57;;;;;;;41.05;21.88;;;;;;;;;;5007657;28;43849;-90
2021/12/09 14:50:31;;;;;;;40.20;22.30;;;;;;;;;;5007994;28;45748;-94
2021/12/09 14:53:36;;;;;;;42.95;22.17;;;;;;;;;;5007018;28;45032;-93
2021/12/09 14:56:05;;;;;;;40.92;21.77;;;;;;;;;;5007271;28;44906;-93
2021/12/09 14:58:40;;;;;;;41.70;23.42;;;;;;;;;;5007054;28;45087;-93
2021/12/09 15:01:14;;;;;;;37.58;21.42;;;;;;;;;;5007125;28;44962;-93
2021/12/09 15:03:52;;;;;;;40.10;20.95;;;;;;;;;;5011912;28;43477;-86
2021/12/09 15:06:30;;;;;;;33.78;21.50;;;;;;;;;;5006674;28;46281;-90
2021/12/09 15:09:08;;;;;;;32.72;20.85;;;;;;;;;;5006898;28;43922;-85
2021/12/09 15:11:35;;;;;;;34.90;21.90;;;;;;;;;;5006115;28;46152;-85
2021/12/09 15:14:02;;;;;;;39.87;23.40;;;;;;;;;;5007535;28;45945;-86
2021/12/09 15:16:29;;;;;;;39.53;21.83;;;;;;;;;;5005949;28;44935;-83
2021/12/09 15:18:55;;;;;;;43.03;23.55;;;;;;;;;;5007710;28;46066;-84
2021/12/09 15:21:24;;;;;;;39.33;21.67;;;;;;;;;;5006120;28;44894;-84
2021/12/09 15:23:52;;;;;;;32.42;21.00;;;;;;;;;;5005952;28;44688;-83
2021/12/09 15:26:20;;;;;;;;;;;;;;;;;;5008138;28;43858;-84
2021/12/09 15:29:00;;;;;;;37.38;21.10;;;;;;;;;;5007601;28;44205;-82
2021/12/09 15:31:27;;;;;;;38.42;20.15;;;;;;;;;;4985759;28;43549;-81
2021/12/09 15:33:55;;;;;;;32.67;21.10;;;;;;;;;;4987360;28;46161;-83
2021/12/09 15:36:27;;;;;;;35.67;20.95;;;;;;;;;;4986997;28;42918;-84
2021/12/09 15:38:57;;;;;;;39.78;21.70;;;;;;;;;;4999609;28;45729;-83
2021/12/09 15:41:25;;;;;;;37.88;21.88;;;;;;;;;;5006654;28;46034;-83
2021/12/09 15:43:53;;;;;;;40.33;23.48;;;;;;;;;;5008689;28;45747;-83
2021/12/09 15:46:20;;;;;;;40.00;21.77;;;;;;;;;;5008967;28;43813;-84
2021/12/09 15:48:47;;;;;;;43.58;23.45;;;;;;;;;;5009287;28;43840;-83